Bg Felixstowe — V2BR7 — position and weather

sailwx.info

Track history (hours):
 
Tides and Currents Weather Stations Pressure Air Temp Water Temp Dewpoint Dewpoint Depression Visibility Wind Speed Wind Dir Waves Ship Positions

Bg Felixstowe

Last reported at 2017-Aug-14 15:26 UTC. Time now 2017-Aug-19 01:53 UTC.
Position N 25°11' W 080°06'.

Length 139 m; draft 6.9 m.

Type: Ship. MMSI: 304906000.

Date/timePositionNaut miles runAvg speedWind from/ knotsBaromVisibWave heightAir tempDewpointWater temp
2017-Aug-14 15:26N 25°11' W 080°06'512.7
2017-Aug-14 15:00N 25°16' W 080°04'612.5
2017-Aug-14 14:30N 25°22' W 080°03'612.4
2017-Aug-14 14:00N 25°28' W 080°02'612.3
2017-Aug-14 13:30N 25°34' W 080°01'612.7
2017-Aug-14 13:00N 25°40' W 080°02'612.4
2017-Aug-14 12:31N 25°46' W 080°05'4 8.5
2017-Aug-14 12:00N 25°46' W 080°10'0 0.7
2017-Aug-14 11:29N 25°46' W 080°10'0 0.0
2017-Aug-14 10:58N 25°46' W 080°10'0 0.0
2017-Aug-14 10:28N 25°46' W 080°10'0 0.0
2017-Aug-14 09:55N 25°46' W 080°10'0 0.0
2017-Aug-14 09:28N 25°46' W 080°10'0 0.0
2017-Aug-14 09:01N 25°46' W 080°10'0 0.0
2017-Aug-14 08:30N 25°46' W 080°10'0 0.0
2017-Aug-14 07:57N 25°46' W 080°10'0 0.0
2017-Aug-14 07:30N 25°46' W 080°10'0 0.0
2017-Aug-14 07:00N 25°46' W 080°10'0 0.0
2017-Aug-14 06:29N 25°46' W 080°10'0 0.0
2017-Aug-14 05:53N 25°46' W 080°10'0 0.0
2017-Aug-14 05:29N 25°46' W 080°10'0 0.0
2017-Aug-14 04:59N 25°46' W 080°10'0 0.0
2017-Aug-14 04:29N 25°46' W 080°10'0 0.0
2017-Aug-14 03:55N 25°46' W 080°10'0 0.0
2017-Aug-14 03:28N 25°46' W 080°10'0 0.0
2017-Aug-14 02:58N 25°46' W 080°10'0 0.0
2017-Aug-14 02:28N 25°46' W 080°10'0 0.0
2017-Aug-14 01:57N 25°46' W 080°10'0 0.0
2017-Aug-14 01:30N 25°46' W 080°10'0 0.0
2017-Aug-14 00:57N 25°46' W 080°10'0 0.0
2017-Aug-14 00:30N 25°46' W 080°10'0 0.0
2017-Aug-14 00:00N 25°46' W 080°10'0 0.0
2017-Aug-13 23:29N 25°46' W 080°10'0 0.0
2017-Aug-13 22:59N 25°46' W 080°10'0 0.0
2017-Aug-13 22:29N 25°46' W 080°10'0 0.1
2017-Aug-13 22:00N 25°46' W 080°10'3 6.7
2017-Aug-13 21:30N 25°46' W 080°06'713.9
2017-Aug-13 21:00N 25°41' W 080°00'919.0
2017-Aug-13 20:30N 25°31' W 079°60'918.9
2017-Aug-13 20:00N 25°22' W 079°60'1118.6
2017-Aug-13 19:25N 25°12' W 080°05'  
2017-Aug-07 18:10N 25°16' W 080°04'213.3
2017-Aug-07 17:59N 25°18' W 080°03'612.6
2017-Aug-07 17:30N 25°24' W 080°01'612.3
2017-Aug-07 17:00N 25°30' W 080°01'612.0
2017-Aug-07 16:30N 25°36' W 080°02'611.7
2017-Aug-07 16:00N 25°42' W 080°03'5 9.8
2017-Aug-07 15:31N 25°46' W 080°06'4 7.5
2017-Aug-07 15:00N 25°46' W 080°10'0 0.1
2017-Aug-07 14:28N 25°46' W 080°10'0 0.0
2017-Aug-07 13:58N 25°46' W 080°10'0 0.0
2017-Aug-07 13:28N 25°46' W 080°10'0 0.0
2017-Aug-07 12:58N 25°46' W 080°10'0 0.0
2017-Aug-07 12:27N 25°46' W 080°10'0 0.0
2017-Aug-07 11:57N 25°46' W 080°10'0 0.0
2017-Aug-07 11:30N 25°46' W 080°10'0 0.0
2017-Aug-07 11:00N 25°46' W 080°10'0 0.0
2017-Aug-07 10:27N 25°46' W 080°10'0 0.0
2017-Aug-07 09:59N 25°46' W 080°10'0 0.0
2017-Aug-07 09:29N 25°46' W 080°10'0 0.0
2017-Aug-07 08:59N 25°46' W 080°10'0 0.0
2017-Aug-07 08:29N 25°46' W 080°10'0 0.0
2017-Aug-07 07:59N 25°46' W 080°10'0 0.0
2017-Aug-07 07:28N 25°46' W 080°10'0 0.0
2017-Aug-07 06:58N 25°46' W 080°10'0 0.0
2017-Aug-07 06:28N 25°46' W 080°10'0 0.0
2017-Aug-07 05:58N 25°46' W 080°10'0 0.0
2017-Aug-07 05:30N 25°46' W 080°10'0 0.0
2017-Aug-07 05:00N 25°46' W 080°10'0 0.0
2017-Aug-07 04:30N 25°46' W 080°10'0 0.0
2017-Aug-07 04:00N 25°46' W 080°10'0 0.0
2017-Aug-07 03:30N 25°46' W 080°10'0 0.0
2017-Aug-07 02:59N 25°46' W 080°10'0 0.0
2017-Aug-07 02:29N 25°46' W 080°10'0 0.8
2017-Aug-07 02:00N 25°46' W 080°09'5 9.7
2017-Aug-07 01:30N 25°46' W 080°04'816.9
2017-Aug-07 01:00N 25°38' W 080°01'918.8
2017-Aug-07 00:30N 25°28' W 080°00'918.5
2017-Aug-07 00:00N 25°19' W 080°02'  
Track history (hours):
 
Tides and Currents Weather Stations Pressure Air Temp Water Temp Dewpoint Dewpoint Depression Visibility Wind Speed Wind Dir Waves Ship Positions

Bg Felixstowe

Last reported at 2017-Aug-14 15:26 UTC. Time now 2017-Aug-19 01:53 UTC.
Position N 25°11' W 080°06'.

Length 139 m; draft 6.9 m.

Type: Ship. MMSI: 304906000.

Date/timePositionNaut miles runAvg speedWind from/ knotsBaromVisibWave heightAir tempDewpointWater temp
2017-Aug-14 15:26N 25°11' W 080°06'512.7
2017-Aug-14 15:00N 25°16' W 080°04'612.5
2017-Aug-14 14:30N 25°22' W 080°03'612.4
2017-Aug-14 14:00N 25°28' W 080°02'612.3
2017-Aug-14 13:30N 25°34' W 080°01'612.7
2017-Aug-14 13:00N 25°40' W 080°02'612.4
2017-Aug-14 12:31N 25°46' W 080°05'4 8.5
2017-Aug-14 12:00N 25°46' W 080°10'0 0.7
2017-Aug-14 11:29N 25°46' W 080°10'0 0.0
2017-Aug-14 10:58N 25°46' W 080°10'0 0.0
2017-Aug-14 10:28N 25°46' W 080°10'0 0.0
2017-Aug-14 09:55N 25°46' W 080°10'0 0.0
2017-Aug-14 09:28N 25°46' W 080°10'0 0.0
2017-Aug-14 09:01N 25°46' W 080°10'0 0.0
2017-Aug-14 08:30N 25°46' W 080°10'0 0.0
2017-Aug-14 07:57N 25°46' W 080°10'0 0.0
2017-Aug-14 07:30N 25°46' W 080°10'0 0.0
2017-Aug-14 07:00N 25°46' W 080°10'0 0.0
2017-Aug-14 06:29N 25°46' W 080°10'0 0.0
2017-Aug-14 05:53N 25°46' W 080°10'0 0.0
2017-Aug-14 05:29N 25°46' W 080°10'0 0.0
2017-Aug-14 04:59N 25°46' W 080°10'0 0.0
2017-Aug-14 04:29N 25°46' W 080°10'0 0.0
2017-Aug-14 03:55N 25°46' W 080°10'0 0.0
2017-Aug-14 03:28N 25°46' W 080°10'0 0.0
2017-Aug-14 02:58N 25°46' W 080°10'0 0.0
2017-Aug-14 02:28N 25°46' W 080°10'0 0.0
2017-Aug-14 01:57N 25°46' W 080°10'0 0.0
2017-Aug-14 01:30N 25°46' W 080°10'0 0.0
2017-Aug-14 00:57N 25°46' W 080°10'0 0.0
2017-Aug-14 00:30N 25°46' W 080°10'0 0.0
2017-Aug-14 00:00N 25°46' W 080°10'0 0.0
2017-Aug-13 23:29N 25°46' W 080°10'0 0.0
2017-Aug-13 22:59N 25°46' W 080°10'0 0.0
2017-Aug-13 22:29N 25°46' W 080°10'0 0.1
2017-Aug-13 22:00N 25°46' W 080°10'3 6.7
2017-Aug-13 21:30N 25°46' W 080°06'713.9
2017-Aug-13 21:00N 25°41' W 080°00'919.0
2017-Aug-13 20:30N 25°31' W 079°60'918.9
2017-Aug-13 20:00N 25°22' W 079°60'1118.6
2017-Aug-13 19:25N 25°12' W 080°05'  
2017-Aug-07 18:10N 25°16' W 080°04'213.3
2017-Aug-07 17:59N 25°18' W 080°03'612.6
2017-Aug-07 17:30N 25°24' W 080°01'612.3
2017-Aug-07 17:00N 25°30' W 080°01'612.0
2017-Aug-07 16:30N 25°36' W 080°02'611.7
2017-Aug-07 16:00N 25°42' W 080°03'5 9.8
2017-Aug-07 15:31N 25°46' W 080°06'4 7.5
2017-Aug-07 15:00N 25°46' W 080°10'0 0.1
2017-Aug-07 14:28N 25°46' W 080°10'0 0.0
2017-Aug-07 13:58N 25°46' W 080°10'0 0.0
2017-Aug-07 13:28N 25°46' W 080°10'0 0.0
2017-Aug-07 12:58N 25°46' W 080°10'0 0.0
2017-Aug-07 12:27N 25°46' W 080°10'0 0.0
2017-Aug-07 11:57N 25°46' W 080°10'0 0.0
2017-Aug-07 11:30N 25°46' W 080°10'0 0.0
2017-Aug-07 11:00N 25°46' W 080°10'0 0.0
2017-Aug-07 10:27N 25°46' W 080°10'0 0.0
2017-Aug-07 09:59N 25°46' W 080°10'0 0.0
2017-Aug-07 09:29N 25°46' W 080°10'0 0.0
2017-Aug-07 08:59N 25°46' W 080°10'0 0.0
2017-Aug-07 08:29N 25°46' W 080°10'0 0.0
2017-Aug-07 07:59N 25°46' W 080°10'0 0.0
2017-Aug-07 07:28N 25°46' W 080°10'0 0.0
2017-Aug-07 06:58N 25°46' W 080°10'0 0.0
2017-Aug-07 06:28N 25°46' W 080°10'0 0.0
2017-Aug-07 05:58N 25°46' W 080°10'0 0.0
2017-Aug-07 05:30N 25°46' W 080°10'0 0.0
2017-Aug-07 05:00N 25°46' W 080°10'0 0.0
2017-Aug-07 04:30N 25°46' W 080°10'0 0.0
2017-Aug-07 04:00N 25°46' W 080°10'0 0.0
2017-Aug-07 03:30N 25°46' W 080°10'0 0.0
2017-Aug-07 02:59N 25°46' W 080°10'0 0.0
2017-Aug-07 02:29N 25°46' W 080°10'0 0.8
2017-Aug-07 02:00N 25°46' W 080°09'5 9.7
2017-Aug-07 01:30N 25°46' W 080°04'816.9
2017-Aug-07 01:00N 25°38' W 080°01'918.8
2017-Aug-07 00:30N 25°28' W 080°00'918.5
2017-Aug-07 00:00N 25°19' W 080°02'  

Dump ship's entire track history